sensor_id;sensor_type;location;lat;lon;timestamp;pressure;altitude;pressure_sealevel;temperature;humidity
29169;BME280;16219;42.864;23.360;2022-10-03T00:02:00;95897.78;;;10.37;100.00
29169;BME280;16219;42.864;23.360;2022-10-03T00:04:52;95889.84;;;10.06;100.00
29169;BME280;16219;42.864;23.360;2022-10-03T00:07:47;95888.78;;;10.07;100.00
29169;BME280;16219;42.864;23.360;2022-10-03T00:10:22;95876.94;;;10.27;100.00
29169;BME280;16219;42.864;23.360;2022-10-03T00:13:06;95882.06;;;10.32;100.00
29169;BME280;16219;42.864;23.360;2022-10-03T00:15:42;95868.47;;;10.08;100.00
29169;BME280;16219;42.864;23.360;2022-10-03T00:18:24;95861.44;;;10.25;100.00
29169;BME280;16219;42.864;23.360;2022-10-03T00:21:16;95874.50;;;10.39;100.00
29169;BME280;16219;42.864;23.360;2022-10-03T00:23:56;95871.88;;;10.39;100.00
29169;BME280;16219;42.864;23.360;2022-10-03T00:26:37;95862.22;;;10.35;100.00
29169;BME280;16219;42.864;23.360;2022-10-03T00:29:19;95869.72;;;10.41;100.00
29169;BME280;16219;42.864;23.360;2022-10-03T00:31:56;95863.59;;;10.32;100.00
29169;BME280;16219;42.864;23.360;2022-10-03T00:34:38;95858.97;;;10.29;100.00
29169;BME280;16219;42.864;23.360;2022-10-03T00:37:23;95870.13;;;10.26;100.00
29169;BME280;16219;42.864;23.360;2022-10-03T00:46:18;95857.81;;;10.13;100.00
29169;BME280;16219;42.864;23.360;2022-10-03T00:49:29;95853.13;;;10.10;100.00
29169;BME280;16219;42.864;23.360;2022-10-03T00:52:13;95856.53;;;10.10;100.00
29169;BME280;16219;42.864;23.360;2022-10-03T00:54:53;95851.44;;;10.14;100.00
29169;BME280;16219;42.864;23.360;2022-10-03T00:57:37;95853.78;;;10.15;100.00
29169;BME280;16219;42.864;23.360;2022-10-03T01:00:17;95850.22;;;10.20;100.00
29169;BME280;16219;42.864;23.360;2022-10-03T01:02:54;95848.66;;;10.19;100.00
29169;BME280;16219;42.864;23.360;2022-10-03T01:05:37;95839.19;;;10.18;100.00
29169;BME280;16219;42.864;23.360;2022-10-03T01:11:31;95833.31;;;10.12;100.00
29169;BME280;16219;42.864;23.360;2022-10-03T01:14:14;95824.72;;;10.07;100.00
29169;BME280;16219;42.864;23.360;2022-10-03T01:17:01;95824.44;;;10.08;100.00
29169;BME280;16219;42.864;23.360;2022-10-03T01:20:05;95818.53;;;10.02;100.00
29169;BME280;16219;42.864;23.360;2022-10-03T01:23:01;95814.34;;;10.01;100.00
29169;BME280;16219;42.864;23.360;2022-10-03T01:25:39;95814.81;;;10.04;100.00
29169;BME280;16219;42.864;23.360;2022-10-03T01:31:33;95815.56;;;9.95;100.00
29169;BME280;16219;42.864;23.360;2022-10-03T01:34:10;95810.91;;;9.92;100.00
29169;BME280;16219;42.864;23.360;2022-10-03T01:36:44;95823.63;;;9.90;100.00
29169;BME280;16219;42.864;23.360;2022-10-03T01:39:20;95812.00;;;9.91;100.00
29169;BME280;16219;42.864;23.360;2022-10-03T01:41:53;95814.25;;;9.75;100.00
29169;BME280;16219;42.864;23.360;2022-10-03T01:44:30;95806.69;;;9.83;100.00
29169;BME280;16219;42.864;23.360;2022-10-03T01:47:14;95818.63;;;9.89;100.00
29169;BME280;16219;42.864;23.360;2022-10-03T01:49:47;95814.13;;;9.89;100.00
29169;BME280;16219;42.864;23.360;2022-10-03T01:52:23;95814.94;;;9.90;100.00
29169;BME280;16219;42.864;23.360;2022-10-03T01:55:00;95817.25;;;9.91;100.00
29169;BME280;16219;42.864;23.360;2022-10-03T01:57:34;95812.13;;;9.86;100.00
29169;BME280;16219;42.864;23.360;2022-10-03T02:00:05;95811.81;;;9.88;100.00
29169;BME280;16219;42.864;23.360;2022-10-03T02:02:41;95811.78;;;9.79;100.00
29169;BME280;16219;42.864;23.360;2022-10-03T02:05:17;95813.00;;;9.73;100.00
29169;BME280;16219;42.864;23.360;2022-10-03T02:07:53;95813.91;;;9.68;100.00
29169;BME280;16219;42.864;23.360;2022-10-03T02:10:28;95811.44;;;9.72;100.00
29169;BME280;16219;42.864;23.360;2022-10-03T02:13:05;95812.53;;;9.71;100.00
29169;BME280;16219;42.864;23.360;2022-10-03T02:15:46;95820.56;;;9.66;100.00
29169;BME280;16219;42.864;23.360;2022-10-03T02:18:25;95823.50;;;9.64;100.00
29169;BME280;16219;42.864;23.360;2022-10-03T02:21:05;95815.88;;;9.63;100.00
29169;BME280;16219;42.864;23.360;2022-10-03T02:23:39;95818.53;;;9.63;100.00
29169;BME280;16219;42.864;23.360;2022-10-03T02:26:32;95818.06;;;9.61;100.00
29169;BME280;16219;42.864;23.360;2022-10-03T02:29:22;95817.34;;;9.69;100.00
29169;BME280;16219;42.864;23.360;2022-10-03T02:32:18;95814.84;;;9.72;100.00
29169;BME280;16219;42.864;23.360;2022-10-03T02:35:24;95806.66;;;9.74;100.00
29169;BME280;16219;42.864;23.360;2022-10-03T02:38:16;95805.88;;;9.73;100.00
29169;BME280;16219;42.864;23.360;2022-10-03T02:41:22;95814.06;;;9.72;100.00
29169;BME280;16219;42.864;23.360;2022-10-03T02:44:37;95801.69;;;9.81;100.00
29169;BME280;16219;42.864;23.360;2022-10-03T02:53:54;95804.97;;;9.78;100.00
29169;BME280;16219;42.864;23.360;2022-10-03T02:57:01;95798.94;;;9.77;100.00
29169;BME280;16219;42.864;23.360;2022-10-03T03:03:00;95798.94;;;9.77;100.00
29169;BME280;16219;42.864;23.360;2022-10-03T03:06:09;95803.88;;;9.79;100.00
29169;BME280;16219;42.864;23.360;2022-10-03T03:15:29;95788.81;;;9.71;100.00
29169;BME280;16219;42.864;23.360;2022-10-03T03:18:13;95784.19;;;9.76;100.00
29169;BME280;16219;42.864;23.360;2022-10-03T03:20:55;95785.28;;;9.84;100.00
29169;BME280;16219;42.864;23.360;2022-10-03T03:23:39;95786.69;;;9.82;100.00
29169;BME280;16219;42.864;23.360;2022-10-03T03:26:25;95786.25;;;9.88;100.00
29169;BME280;16219;42.864;23.360;2022-10-03T03:29:06;95780.81;;;9.85;100.00
29169;BME280;16219;42.864;23.360;2022-10-03T03:31:42;95791.50;;;9.88;100.00
29169;BME280;16219;42.864;23.360;2022-10-03T03:34:17;95790.31;;;9.94;100.00
29169;BME280;16219;42.864;23.360;2022-10-03T03:36:52;95785.50;;;9.96;100.00
29169;BME280;16219;42.864;23.360;2022-10-03T03:39:38;95772.16;;;9.93;100.00
29169;BME280;16219;42.864;23.360;2022-10-03T03:42:25;95772.81;;;9.98;100.00
29169;BME280;16219;42.864;23.360;2022-10-03T03:45:06;95785.06;;;10.12;100.00
29169;BME280;16219;42.864;23.360;2022-10-03T03:50:41;95780.06;;;10.01;100.00
29169;BME280;16219;42.864;23.360;2022-10-03T03:53:42;95785.06;;;10.12;100.00
29169;BME280;16219;42.864;23.360;2022-10-03T03:56:31;95778.09;;;10.16;100.00
29169;BME280;16219;42.864;23.360;2022-10-03T03:59:11;95767.84;;;10.14;100.00
29169;BME280;16219;42.864;23.360;2022-10-03T04:02:02;95772.84;;;10.16;100.00
29169;BME280;16219;42.864;23.360;2022-10-03T04:04:53;95772.19;;;10.19;100.00
29169;BME280;16219;42.864;23.360;2022-10-03T04:07:32;95773.66;;;10.25;100.00
29169;BME280;16219;42.864;23.360;2022-10-03T04:10:30;95769.31;;;10.29;100.00
29169;BME280;16219;42.864;23.360;2022-10-03T04:13:14;95762.66;;;10.40;100.00
29169;BME280;16219;42.864;23.360;2022-10-03T04:16:18;95760.50;;;10.42;100.00
29169;BME280;16219;42.864;23.360;2022-10-03T04:19:12;95751.97;;;10.45;100.00
29169;BME280;16219;42.864;23.360;2022-10-03T04:21:53;95749.47;;;10.40;100.00
29169;BME280;16219;42.864;23.360;2022-10-03T04:24:42;95744.19;;;10.40;100.00
29169;BME280;16219;42.864;23.360;2022-10-03T04:27:35;95746.69;;;10.28;100.00
29169;BME280;16219;42.864;23.360;2022-10-03T04:30:08;95747.91;;;10.39;100.00
29169;BME280;16219;42.864;23.360;2022-10-03T04:32:57;95747.16;;;10.47;100.00
29169;BME280;16219;42.864;23.360;2022-10-03T04:35:54;95756.75;;;10.52;100.00
29169;BME280;16219;42.864;23.360;2022-10-03T04:38:42;95760.34;;;10.56;100.00
29169;BME280;16219;42.864;23.360;2022-10-03T04:41:23;95755.38;;;10.55;100.00
29169;BME280;16219;42.864;23.360;2022-10-03T04:43:59;95755.53;;;10.58;100.00
29169;BME280;16219;42.864;23.360;2022-10-03T04:46:34;95764.22;;;10.59;100.00
29169;BME280;16219;42.864;23.360;2022-10-03T04:49:11;95757.06;;;10.33;100.00
29169;BME280;16219;42.864;23.360;2022-10-03T04:51:49;95746.31;;;10.21;100.00
29169;BME280;16219;42.864;23.360;2022-10-03T04:54:27;95749.94;;;10.34;100.00
29169;BME280;16219;42.864;23.360;2022-10-03T04:57:01;95755.97;;;10.34;100.00
29169;BME280;16219;42.864;23.360;2022-10-03T04:59:39;95750.25;;;10.49;100.00
29169;BME280;16219;42.864;23.360;2022-10-03T05:02:17;95746.69;;;10.54;100.00
29169;BME280;16219;42.864;23.360;2022-10-03T05:05:03;95745.00;;;10.58;100.00
29169;BME280;16219;42.864;23.360;2022-10-03T05:07:44;95744.66;;;10.60;100.00
29169;BME280;16219;42.864;23.360;2022-10-03T05:13:20;95742.97;;;10.64;100.00
29169;BME280;16219;42.864;23.360;2022-10-03T05:15:57;95745.28;;;10.65;100.00
29169;BME280;16219;42.864;23.360;2022-10-03T05:18:30;95739.84;;;10.62;100.00
29169;BME280;16219;42.864;23.360;2022-10-03T05:21:04;95737.06;;;10.67;100.00
29169;BME280;16219;42.864;23.360;2022-10-03T05:23:46;95723.56;;;10.68;100.00
29169;BME280;16219;42.864;23.360;2022-10-03T05:26:22;95732.41;;;10.64;100.00
29169;BME280;16219;42.864;23.360;2022-10-03T05:29:00;95711.16;;;10.60;100.00
29169;BME280;16219;42.864;23.360;2022-10-03T05:31:41;95703.97;;;10.78;100.00
29169;BME280;16219;42.864;23.360;2022-10-03T05:34:22;95710.03;;;10.70;100.00
29169;BME280;16219;42.864;23.360;2022-10-03T05:37:18;95728.22;;;10.80;100.00
29169;BME280;16219;42.864;23.360;2022-10-03T05:39:56;95723.34;;;10.99;100.00
29169;BME280;16219;42.864;23.360;2022-10-03T05:42:35;95737.59;;;11.16;100.00
29169;BME280;16219;42.864;23.360;2022-10-03T05:45:16;95729.38;;;11.17;100.00
29169;BME280;16219;42.864;23.360;2022-10-03T05:47:50;95734.16;;;11.24;100.00
29169;BME280;16219;42.864;23.360;2022-10-03T05:53:57;95722.97;;;11.27;100.00
29169;BME280;16219;42.864;23.360;2022-10-03T05:56:49;95722.63;;;11.37;100.00
29169;BME280;16219;42.864;23.360;2022-10-03T05:59:58;95727.28;;;11.40;100.00
29169;BME280;16219;42.864;23.360;2022-10-03T06:05:35;95739.34;;;11.50;100.00
29169;BME280;16219;42.864;23.360;2022-10-03T06:08:38;95736.00;;;11.70;100.00
29169;BME280;16219;42.864;23.360;2022-10-03T06:11:26;95736.44;;;11.81;100.00
29169;BME280;16219;42.864;23.360;2022-10-03T06:14:17;95743.13;;;11.87;100.00
29169;BME280;16219;42.864;23.360;2022-10-03T06:17:00;95747.63;;;11.87;100.00
29169;BME280;16219;42.864;23.360;2022-10-03T06:19:43;95744.22;;;11.86;100.00
29169;BME280;16219;42.864;23.360;2022-10-03T06:28:49;95751.06;;;11.79;100.00
29169;BME280;16219;42.864;23.360;2022-10-03T06:31:55;95747.78;;;11.82;100.00
29169;BME280;16219;42.864;23.360;2022-10-03T06:40:35;95766.47;;;11.68;100.00
29169;BME280;16219;42.864;23.360;2022-10-03T06:43:46;95762.00;;;11.68;100.00
29169;BME280;16219;42.864;23.360;2022-10-03T06:49:34;95757.00;;;11.67;100.00
29169;BME280;16219;42.864;23.360;2022-10-03T06:58:28;95792.06;;;11.38;100.00
29169;BME280;16219;42.864;23.360;2022-10-03T07:01:30;95794.88;;;11.41;100.00
29169;BME280;16219;42.864;23.360;2022-10-03T07:04:20;95797.81;;;11.48;100.00
29169;BME280;16219;42.864;23.360;2022-10-03T07:10:18;95817.50;;;11.51;100.00
29169;BME280;16219;42.864;23.360;2022-10-03T07:13:03;95824.53;;;11.56;100.00
29169;BME280;16219;42.864;23.360;2022-10-03T07:19:11;95817.97;;;11.62;100.00
29169;BME280;16219;42.864;23.360;2022-10-03T07:25:14;95813.72;;;11.78;100.00
29169;BME280;16219;42.864;23.360;2022-10-03T07:28:37;95815.41;;;11.91;100.00
29169;BME280;16219;42.864;23.360;2022-10-03T07:31:17;95811.69;;;11.84;100.00
29169;BME280;16219;42.864;23.360;2022-10-03T07:34:13;95819.78;;;11.87;100.00
29169;BME280;16219;42.864;23.360;2022-10-03T07:40:26;95825.31;;;12.03;100.00
29169;BME280;16219;42.864;23.360;2022-10-03T07:46:45;95825.91;;;12.09;100.00
29169;BME280;16219;42.864;23.360;2022-10-03T07:49:38;95825.28;;;12.12;100.00
29169;BME280;16219;42.864;23.360;2022-10-03T07:52:36;95813.88;;;12.20;100.00
29169;BME280;16219;42.864;23.360;2022-10-03T07:55:46;95819.16;;;12.20;100.00
29169;BME280;16219;42.864;23.360;2022-10-03T07:58:35;95815.75;;;12.19;100.00
29169;BME280;16219;42.864;23.360;2022-10-03T08:01:22;95823.50;;;12.24;100.00
29169;BME280;16219;42.864;23.360;2022-10-03T08:04:27;95817.59;;;12.19;100.00
29169;BME280;16219;42.864;23.360;2022-10-03T08:07:11;95821.72;;;12.08;100.00
29169;BME280;16219;42.864;23.360;2022-10-03T08:09:54;95815.09;;;12.22;100.00
29169;BME280;16219;42.864;23.360;2022-10-03T08:13:09;95822.88;;;12.28;100.00
29169;BME280;16219;42.864;23.360;2022-10-03T08:15:51;95822.88;;;12.28;100.00
29169;BME280;16219;42.864;23.360;2022-10-03T08:21:30;95840.47;;;12.53;100.00
29169;BME280;16219;42.864;23.360;2022-10-03T08:24:21;95838.41;;;12.59;100.00
29169;BME280;16219;42.864;23.360;2022-10-03T08:27:21;95833.63;;;12.73;100.00
29169;BME280;16219;42.864;23.360;2022-10-03T08:30:28;95842.28;;;12.82;100.00
29169;BME280;16219;42.864;23.360;2022-10-03T08:33:21;95833.88;;;12.80;100.00
29169;BME280;16219;42.864;23.360;2022-10-03T08:36:13;95827.97;;;12.83;100.00
29169;BME280;16219;42.864;23.360;2022-10-03T08:39:04;95834.53;;;12.98;100.00
29169;BME280;16219;42.864;23.360;2022-10-03T08:44:52;95841.97;;;13.25;100.00
29169;BME280;16219;42.864;23.360;2022-10-03T08:47:49;95842.88;;;13.30;100.00
29169;BME280;16219;42.864;23.360;2022-10-03T08:57:20;95845.59;;;13.54;100.00
29169;BME280;16219;42.864;23.360;2022-10-03T09:00:09;95841.72;;;13.52;100.00
29169;BME280;16219;42.864;23.360;2022-10-03T09:03:07;95847.47;;;13.54;100.00
29169;BME280;16219;42.864;23.360;2022-10-03T09:09:26;95838.63;;;13.49;100.00
29169;BME280;16219;42.864;23.360;2022-10-03T09:12:25;95851.78;;;13.58;100.00
29169;BME280;16219;42.864;23.360;2022-10-03T09:15:20;95842.44;;;13.73;100.00
29169;BME280;16219;42.864;23.360;2022-10-03T09:21:20;95841.59;;;13.93;100.00
29169;BME280;16219;42.864;23.360;2022-10-03T09:24:15;95834.97;;;13.99;100.00
29169;BME280;16219;42.864;23.360;2022-10-03T09:27:19;95836.72;;;14.08;100.00
29169;BME280;16219;42.864;23.360;2022-10-03T09:36:22;95842.34;;;14.18;100.00
29169;BME280;16219;42.864;23.360;2022-10-03T09:42:28;95836.94;;;14.39;100.00
29169;BME280;16219;42.864;23.360;2022-10-03T09:45:14;95825.22;;;14.53;100.00
29169;BME280;16219;42.864;23.360;2022-10-03T09:48:25;95841.97;;;14.53;100.00
29169;BME280;16219;42.864;23.360;2022-10-03T10:03:27;95824.69;;;14.99;100.00
29169;BME280;16219;42.864;23.360;2022-10-03T10:06:14;95835.19;;;15.08;100.00
29169;BME280;16219;42.864;23.360;2022-10-03T10:12:14;95827.53;;;15.07;100.00
29169;BME280;16219;42.864;23.360;2022-10-03T10:15:21;95826.66;;;15.03;100.00
29169;BME280;16219;42.864;23.360;2022-10-03T10:21:35;95813.34;;;15.15;100.00
29169;BME280;16219;42.864;23.360;2022-10-03T10:24:26;95819.41;;;15.15;100.00
29169;BME280;16219;42.864;23.360;2022-10-03T10:27:25;95818.25;;;15.29;100.00
29169;BME280;16219;42.864;23.360;2022-10-03T10:30:10;95821.22;;;15.39;100.00
29169;BME280;16219;42.864;23.360;2022-10-03T10:36:09;95836.28;;;15.35;100.00
29169;BME280;16219;42.864;23.360;2022-10-03T10:45:29;95834.28;;;15.60;100.00
29169;BME280;16219;42.864;23.360;2022-10-03T10:54:58;95832.28;;;16.68;100.00
29169;BME280;16219;42.864;23.360;2022-10-03T10:58:04;95828.19;;;16.90;100.00
29169;BME280;16219;42.864;23.360;2022-10-03T11:01:02;95829.25;;;16.85;100.00
29169;BME280;16219;42.864;23.360;2022-10-03T11:04:01;95831.59;;;16.71;100.00
29169;BME280;16219;42.864;23.360;2022-10-03T11:07:03;95841.59;;;16.74;100.00
29169;BME280;16219;42.864;23.360;2022-10-03T11:09:46;95841.69;;;16.62;100.00
29169;BME280;16219;42.864;23.360;2022-10-03T11:16:16;95834.56;;;16.34;100.00
29169;BME280;16219;42.864;23.360;2022-10-03T11:25:36;95812.38;;;16.62;100.00
29169;BME280;16219;42.864;23.360;2022-10-03T11:37:42;95819.38;;;17.05;100.00
29169;BME280;16219;42.864;23.360;2022-10-03T11:40:22;95819.47;;;17.09;100.00
29169;BME280;16219;42.864;23.360;2022-10-03T11:42:59;95814.25;;;16.96;100.00
29169;BME280;16219;42.864;23.360;2022-10-03T11:45:38;95812.09;;;16.83;100.00
29169;BME280;16219;42.864;23.360;2022-10-03T11:48:22;95818.03;;;16.76;100.00
29169;BME280;16219;42.864;23.360;2022-10-03T11:50:54;95815.78;;;16.97;100.00
29169;BME280;16219;42.864;23.360;2022-10-03T11:53:37;95804.28;;;17.32;100.00
29169;BME280;16219;42.864;23.360;2022-10-03T11:56:18;95809.59;;;17.32;100.00
29169;BME280;16219;42.864;23.360;2022-10-03T11:59:01;95806.78;;;17.44;100.00
29169;BME280;16219;42.864;23.360;2022-10-03T12:01:43;95797.31;;;17.47;100.00
29169;BME280;16219;42.864;23.360;2022-10-03T12:04:24;95799.47;;;17.41;100.00
29169;BME280;16219;42.864;23.360;2022-10-03T12:06:58;95810.19;;;17.22;100.00
29169;BME280;16219;42.864;23.360;2022-10-03T12:09:59;95804.69;;;17.34;100.00
29169;BME280;16219;42.864;23.360;2022-10-03T12:12:36;95805.53;;;17.38;100.00
29169;BME280;16219;42.864;23.360;2022-10-03T12:15:28;95804.81;;;17.41;100.00
29169;BME280;16219;42.864;23.360;2022-10-03T12:18:05;95803.78;;;17.46;100.00
29169;BME280;16219;42.864;23.360;2022-10-03T12:23:45;95803.78;;;17.69;100.00
29169;BME280;16219;42.864;23.360;2022-10-03T12:26:29;95802.38;;;17.75;100.00
29169;BME280;16219;42.864;23.360;2022-10-03T12:28:59;95785.41;;;17.64;100.00
29169;BME280;16219;42.864;23.360;2022-10-03T12:31:31;95796.03;;;17.60;100.00
29169;BME280;16219;42.864;23.360;2022-10-03T12:34:14;95784.91;;;17.35;100.00
29169;BME280;16219;42.864;23.360;2022-10-03T12:36:51;95786.72;;;17.51;100.00
29169;BME280;16219;42.864;23.360;2022-10-03T12:39:33;95781.66;;;17.45;100.00
29169;BME280;16219;42.864;23.360;2022-10-03T12:42:18;95793.28;;;17.57;100.00
29169;BME280;16219;42.864;23.360;2022-10-03T12:44:56;95795.25;;;17.60;100.00
29169;BME280;16219;42.864;23.360;2022-10-03T12:47:46;95794.00;;;17.54;93.61
29169;BME280;16219;42.864;23.360;2022-10-03T12:50:33;95786.56;;;17.63;98.74
29169;BME280;16219;42.864;23.360;2022-10-03T12:53:22;95784.09;;;17.54;95.72
29169;BME280;16219;42.864;23.360;2022-10-03T12:56:01;95780.19;;;17.71;100.00
29169;BME280;16219;42.864;23.360;2022-10-03T12:58:38;95775.94;;;17.89;99.52
29169;BME280;16219;42.864;23.360;2022-10-03T13:01:20;95781.19;;;18.09;96.60
29169;BME280;16219;42.864;23.360;2022-10-03T13:03:52;95770.81;;;18.04;92.00
29169;BME280;16219;42.864;23.360;2022-10-03T13:06:40;95784.81;;;18.20;93.58
29169;BME280;16219;42.864;23.360;2022-10-03T13:09:18;95777.41;;;18.36;95.76
29169;BME280;16219;42.864;23.360;2022-10-03T13:12:01;95788.91;;;18.40;96.24
29169;BME280;16219;42.864;23.360;2022-10-03T13:15:31;95797.38;;;18.19;93.54
29169;BME280;16219;42.864;23.360;2022-10-03T13:17:38;95798.22;;;18.01;97.64
29169;BME280;16219;42.864;23.360;2022-10-03T13:20:19;95795.38;;;18.13;96.89
29169;BME280;16219;42.864;23.360;2022-10-03T13:22:59;95795.56;;;18.01;93.86
29169;BME280;16219;42.864;23.360;2022-10-03T13:25:34;95793.94;;;18.19;98.76
29169;BME280;16219;42.864;23.360;2022-10-03T13:28:07;95790.16;;;18.20;95.27
29169;BME280;16219;42.864;23.360;2022-10-03T13:30:44;95790.53;;;18.22;93.93
29169;BME280;16219;42.864;23.360;2022-10-03T13:33:15;95783.34;;;18.26;98.15
29169;BME280;16219;42.864;23.360;2022-10-03T13:35:46;95779.78;;;18.15;93.53
29169;BME280;16219;42.864;23.360;2022-10-03T13:38:43;95795.47;;;18.20;91.13
29169;BME280;16219;42.864;23.360;2022-10-03T13:41:28;95784.69;;;18.13;88.81
29169;BME280;16219;42.864;23.360;2022-10-03T13:43:59;95778.44;;;18.02;87.09
29169;BME280;16219;42.864;23.360;2022-10-03T13:46:34;95783.28;;;17.96;84.26
29169;BME280;16219;42.864;23.360;2022-10-03T13:49:10;95786.09;;;17.80;87.02
29169;BME280;16219;42.864;23.360;2022-10-03T13:51:47;95784.50;;;17.56;86.56
29169;BME280;16219;42.864;23.360;2022-10-03T13:54:22;95794.03;;;17.34;85.61
29169;BME280;16219;42.864;23.360;2022-10-03T13:57:02;95790.53;;;17.30;86.30
29169;BME280;16219;42.864;23.360;2022-10-03T13:59:41;95793.34;;;16.98;87.24
29169;BME280;16219;42.864;23.360;2022-10-03T14:02:37;95797.97;;;17.02;90.19
29169;BME280;16219;42.864;23.360;2022-10-03T14:05:21;95795.75;;;16.84;89.35
29169;BME280;16219;42.864;23.360;2022-10-03T14:07:56;95785.66;;;16.74;90.09
29169;BME280;16219;42.864;23.360;2022-10-03T14:10:51;95791.63;;;16.71;95.34
29169;BME280;16219;42.864;23.360;2022-10-03T14:13:29;95791.84;;;16.62;99.31
29169;BME280;16219;42.864;23.360;2022-10-03T14:16:04;95789.38;;;16.54;100.00
29169;BME280;16219;42.864;23.360;2022-10-03T14:18:44;95804.22;;;16.55;99.17
29169;BME280;16219;42.864;23.360;2022-10-03T14:21:49;95804.34;;;16.42;100.00
29169;BME280;16219;42.864;23.360;2022-10-03T14:24:34;95803.91;;;16.40;100.00
29169;BME280;16219;42.864;23.360;2022-10-03T14:27:12;95812.81;;;16.48;100.00
29169;BME280;16219;42.864;23.360;2022-10-03T14:29:53;95814.22;;;16.42;100.00
29169;BME280;16219;42.864;23.360;2022-10-03T14:32:30;95824.09;;;16.41;100.00
29169;BME280;16219;42.864;23.360;2022-10-03T14:35:06;95826.59;;;16.34;100.00
29169;BME280;16219;42.864;23.360;2022-10-03T14:37:39;95813.56;;;16.29;100.00
29169;BME280;16219;42.864;23.360;2022-10-03T14:40:15;95827.44;;;16.22;100.00
29169;BME280;16219;42.864;23.360;2022-10-03T14:42:58;95827.81;;;16.05;100.00
29169;BME280;16219;42.864;23.360;2022-10-03T14:45:36;95826.88;;;15.82;100.00
29169;BME280;16219;42.864;23.360;2022-10-03T14:48:07;95825.97;;;15.62;100.00
29169;BME280;16219;42.864;23.360;2022-10-03T14:50:40;95824.94;;;15.50;100.00
29169;BME280;16219;42.864;23.360;2022-10-03T14:53:15;95835.47;;;15.47;100.00
29169;BME280;16219;42.864;23.360;2022-10-03T14:55:51;95831.06;;;15.39;100.00
29169;BME280;16219;42.864;23.360;2022-10-03T14:58:22;95820.34;;;15.35;100.00
29169;BME280;16219;42.864;23.360;2022-10-03T15:01:02;95830.06;;;15.43;100.00
29169;BME280;16219;42.864;23.360;2022-10-03T15:03:33;95834.66;;;15.31;100.00
29169;BME280;16219;42.864;23.360;2022-10-03T15:06:29;95840.13;;;15.22;100.00
29169;BME280;16219;42.864;23.360;2022-10-03T15:08:59;95840.59;;;15.12;100.00
29169;BME280;16219;42.864;23.360;2022-10-03T15:11:30;95845.97;;;14.99;100.00
29169;BME280;16219;42.864;23.360;2022-10-03T15:14:03;95843.09;;;14.92;100.00
29169;BME280;16219;42.864;23.360;2022-10-03T15:16:35;95841.44;;;14.88;100.00
29169;BME280;16219;42.864;23.360;2022-10-03T15:19:08;95854.63;;;14.72;100.00
29169;BME280;16219;42.864;23.360;2022-10-03T15:21:41;95842.25;;;14.64;100.00
29169;BME280;16219;42.864;23.360;2022-10-03T15:24:18;95846.91;;;14.55;100.00
29169;BME280;16219;42.864;23.360;2022-10-03T15:26:59;95835.41;;;14.50;100.00
29169;BME280;16219;42.864;23.360;2022-10-03T15:29:28;95846.91;;;14.42;100.00
29169;BME280;16219;42.864;23.360;2022-10-03T15:31:58;95843.81;;;14.28;100.00
29169;BME280;16219;42.864;23.360;2022-10-03T15:34:30;95856.31;;;14.28;100.00
29169;BME280;16219;42.864;23.360;2022-10-03T15:37:00;95859.97;;;14.23;100.00
29169;BME280;16219;42.864;23.360;2022-10-03T15:39:34;95856.44;;;14.19;100.00
29169;BME280;16219;42.864;23.360;2022-10-03T15:42:12;95859.94;;;14.11;100.00
29169;BME280;16219;42.864;23.360;2022-10-03T15:44:50;95863.16;;;14.04;100.00
29169;BME280;16219;42.864;23.360;2022-10-03T15:47:21;95864.78;;;13.96;100.00
29169;BME280;16219;42.864;23.360;2022-10-03T15:49:52;95862.22;;;13.88;100.00
29169;BME280;16219;42.864;23.360;2022-10-03T15:52:25;95869.63;;;13.82;100.00
29169;BME280;16219;42.864;23.360;2022-10-03T15:54:56;95875.91;;;13.78;100.00
29169;BME280;16219;42.864;23.360;2022-10-03T15:57:27;95875.16;;;13.77;100.00
29169;BME280;16219;42.864;23.360;2022-10-03T15:59:57;95873.16;;;13.74;100.00
29169;BME280;16219;42.864;23.360;2022-10-03T16:02:31;95880.56;;;13.81;100.00
29169;BME280;16219;42.864;23.360;2022-10-03T16:05:02;95876.94;;;13.85;100.00
29169;BME280;16219;42.864;23.360;2022-10-03T16:07:36;95878.25;;;13.91;100.00
29169;BME280;16219;42.864;23.360;2022-10-03T16:10:13;95881.59;;;14.00;100.00
29169;BME280;16219;42.864;23.360;2022-10-03T16:12:53;95872.75;;;14.09;100.00
29169;BME280;16219;42.864;23.360;2022-10-03T16:15:25;95878.53;;;14.11;100.00
29169;BME280;16219;42.864;23.360;2022-10-03T16:17:59;95889.34;;;14.18;100.00
29169;BME280;16219;42.864;23.360;2022-10-03T16:20:29;95892.22;;;14.13;100.00
29169;BME280;16219;42.864;23.360;2022-10-03T16:23:09;95903.06;;;14.20;100.00
29169;BME280;16219;42.864;23.360;2022-10-03T16:25:43;95900.19;;;14.25;100.00
29169;BME280;16219;42.864;23.360;2022-10-03T16:28:15;95916.56;;;14.15;100.00
29169;BME280;16219;42.864;23.360;2022-10-03T16:30:47;95910.13;;;14.04;100.00
29169;BME280;16219;42.864;23.360;2022-10-03T16:33:22;95920.28;;;14.01;100.00
29169;BME280;16219;42.864;23.360;2022-10-03T16:35:53;95921.72;;;13.99;100.00
29169;BME280;16219;42.864;23.360;2022-10-03T16:38:24;95921.84;;;14.03;100.00
29169;BME280;16219;42.864;23.360;2022-10-03T16:40:58;95926.69;;;14.00;100.00
29169;BME280;16219;42.864;23.360;2022-10-03T16:43:29;95930.06;;;13.89;100.00
29169;BME280;16219;42.864;23.360;2022-10-03T16:45:59;95933.59;;;13.81;100.00
29169;BME280;16219;42.864;23.360;2022-10-03T16:48:32;95932.16;;;13.83;100.00
29169;BME280;16219;42.864;23.360;2022-10-03T16:51:19;95938.78;;;13.77;100.00
29169;BME280;16219;42.864;23.360;2022-10-03T16:53:49;95912.44;;;13.60;100.00